Time;durP1;ratioP1;P1;durP2;ratioP2;P2;SDS_P1;SDS_P2;PMS_P1;PMS_P2;Temp;Humidity;BMP_temperature;BMP_pressure;BME280_temperature;BME280_humidity;BME280_pressure;Samples;Min_cycle;Max_cycle;Signal;HPM_P1;HPM_P2
2024/02/12 00:01:36;;;;;;;2.10;2.00;;;7.40;99.90;;;;;;5042097;28;20306;-75
2024/02/12 00:04:07;;;;;;;2.20;2.10;;;7.40;99.90;;;;;;5042891;28;20230;-75
2024/02/12 00:06:34;;;;;;;2.00;1.90;;;7.30;99.90;;;;;;5042779;28;20222;-74
2024/02/12 00:09:03;;;;;;;2.30;2.20;;;7.30;99.90;;;;;;5042374;28;20268;-75
2024/02/12 00:11:30;;;;;;;2.40;2.30;;;7.30;99.90;;;;;;5043599;28;20218;-75
2024/02/12 00:13:57;;;;;;;2.40;2.30;;;7.30;99.90;;;;;;5043455;28;20203;-75
2024/02/12 00:16:25;;;;;;;2.20;2.10;;;7.20;99.90;;;;;;5039132;28;20272;-75
2024/02/12 00:18:53;;;;;;;2.45;2.35;;;7.20;99.90;;;;;;5043569;28;20895;-75
2024/02/12 00:21:20;;;;;;;2.00;1.90;;;7.30;99.90;;;;;;5042483;28;20229;-74
2024/02/12 00:23:47;;;;;;;3.33;2.70;;;7.20;99.90;;;;;;5045909;28;20284;-75
2024/02/12 00:26:15;;;;;;;2.55;2.35;;;7.20;99.90;;;;;;5041278;28;20312;-75
2024/02/12 00:28:42;;;;;;;2.90;2.70;;;7.10;99.90;;;;;;5046251;28;20205;-75
2024/02/12 00:31:11;;;;;;;2.30;2.20;;;7.10;99.90;;;;;;5042066;28;20219;-75
2024/02/12 00:33:40;;;;;;;2.15;2.05;;;7.10;99.90;;;;;;5040737;28;20280;-74
2024/02/12 00:36:10;;;;;;;2.20;2.10;;;7.10;99.90;;;;;;5040479;28;20595;-75
2024/02/12 00:38:39;;;;;;;1.92;1.83;;;7.10;99.90;;;;;;5043162;28;20222;-75
2024/02/12 00:41:06;;;;;;;3.22;2.22;;;7.00;99.90;;;;;;5046600;28;20222;-75
2024/02/12 00:43:33;;;;;;;2.17;2.08;;;7.00;99.90;;;;;;5047144;28;21408;-75
2024/02/12 00:46:01;;;;;;;2.00;1.90;;;6.90;99.90;;;;;;5048061;28;21205;-74
2024/02/12 00:48:29;;;;;;;2.00;1.90;;;6.90;99.90;;;;;;5047862;28;20198;-75
2024/02/12 00:50:56;;;;;;;1.85;1.77;;;6.80;99.90;;;;;;5049425;28;20233;-75
2024/02/12 00:53:24;;;;;;;2.30;2.20;;;6.70;99.90;;;;;;5049807;28;20308;-75
2024/02/12 00:55:51;;;;;;;1.85;1.75;;;6.70;99.90;;;;;;5044722;28;20310;-75
2024/02/12 00:58:18;;;;;;;1.98;1.88;;;6.60;99.90;;;;;;5047202;28;20311;-75
2024/02/12 01:00:45;;;;;;;2.08;1.98;;;6.60;99.90;;;;;;5049353;28;20265;-74
2024/02/12 01:03:14;;;;;;;1.85;1.80;;;6.50;99.90;;;;;;5049644;28;20704;-75
2024/02/12 01:05:43;;;;;;;2.10;2.00;;;6.40;99.90;;;;;;5030155;28;20226;-75
2024/02/12 01:08:11;;;;;;;1.73;1.73;;;6.40;99.90;;;;;;5050547;28;20297;-75
2024/02/12 01:10:40;;;;;;;1.83;1.80;;;6.30;99.90;;;;;;5044053;28;20250;-74
2024/02/12 01:13:07;;;;;;;1.52;1.52;;;6.30;99.90;;;;;;5050741;28;20269;-74
2024/02/12 01:15:34;;;;;;;2.10;1.98;;;6.30;99.90;;;;;;5044428;28;20214;-74
2024/02/12 01:18:03;;;;;;;2.50;2.40;;;6.30;99.90;;;;;;5048721;28;20246;-75
2024/02/12 01:20:31;;;;;;;1.80;1.70;;;6.30;99.90;;;;;;5042937;28;20310;-74
2024/02/12 01:22:58;;;;;;;2.08;1.98;;;6.30;99.90;;;;;;5047063;28;20766;-74
2024/02/12 01:25:25;;;;;;;2.15;2.05;;;6.30;99.90;;;;;;5049125;28;20226;-74
2024/02/12 01:27:54;;;;;;;1.90;1.80;;;6.40;99.90;;;;;;5048007;28;20668;-74
2024/02/12 01:30:22;;;;;;;2.20;2.10;;;6.40;99.90;;;;;;5044448;28;20279;-75
2024/02/12 01:32:49;;;;;;;1.88;1.88;;;6.40;99.90;;;;;;5048256;28;20203;-75
2024/02/12 01:35:16;;;;;;;1.73;1.73;;;6.40;99.90;;;;;;5047877;28;20250;-75
2024/02/12 01:37:43;;;;;;;2.20;2.10;;;6.30;99.90;;;;;;5051728;28;20221;-75
2024/02/12 01:40:11;;;;;;;1.60;1.60;;;6.30;99.90;;;;;;5045886;28;20243;-75
2024/02/12 01:42:39;;;;;;;2.00;1.90;;;6.30;99.90;;;;;;5046298;28;20318;-75
2024/02/12 01:47:57;;;;;;;2.03;1.80;;;6.30;99.90;;;;;;5047656;28;20277;-75
2024/02/12 01:50:25;;;;;;;1.77;1.77;;;6.20;99.90;;;;;;5044706;28;20258;-75
2024/02/12 01:52:54;;;;;;;1.77;1.77;;;6.20;99.90;;;;;;5029444;28;20211;-75
2024/02/12 01:55:23;;;;;;;2.05;1.95;;;6.10;99.90;;;;;;5047054;28;20775;-75
2024/02/12 01:57:51;;;;;;;2.20;2.10;;;6.10;99.90;;;;;;5047177;28;20207;-76
2024/02/12 02:00:23;;;;;;;2.35;2.15;;;6.10;99.90;;;;;;5048244;28;20218;-75
2024/02/12 02:02:50;;;;;;;2.00;1.90;;;6.00;99.90;;;;;;5048225;28;20203;-74
2024/02/12 02:05:18;;;;;;;2.22;2.13;;;6.00;99.90;;;;;;5046415;28;20222;-75
2024/02/12 02:07:47;;;;;;;2.30;2.20;;;6.00;99.90;;;;;;5046551;28;20252;-75
2024/02/12 02:10:14;;;;;;;2.38;2.28;;;5.90;99.90;;;;;;5044034;28;20331;-76
2024/02/12 02:12:42;;;;;;;1.60;1.60;;;5.80;99.90;;;;;;5044684;28;21538;-75
2024/02/12 02:15:10;;;;;;;2.42;2.33;;;5.80;99.90;;;;;;5047974;28;20637;-75
2024/02/12 02:17:40;;;;;;;2.20;2.10;;;5.80;99.90;;;;;;5042898;28;20210;-76
2024/02/12 02:20:12;;;;;;;2.33;2.22;;;5.80;99.90;;;;;;5047625;28;20246;-75
2024/02/12 02:22:39;;;;;;;2.75;2.65;;;5.80;99.90;;;;;;5045493;28;20209;-75
2024/02/12 02:25:11;;;;;;;2.22;2.13;;;5.70;99.90;;;;;;5046631;28;20319;-75
2024/02/12 02:27:38;;;;;;;1.90;1.80;;;5.70;99.90;;;;;;5046798;28;20683;-75
2024/02/12 02:30:07;;;;;;;2.17;2.08;;;5.80;99.90;;;;;;5046037;28;20215;-75
2024/02/12 02:32:36;;;;;;;2.17;2.08;;;5.80;99.90;;;;;;5039780;28;20198;-75
2024/02/12 02:35:03;;;;;;;2.30;2.20;;;5.80;99.90;;;;;;5039122;28;20334;-75
2024/02/12 02:37:31;;;;;;;2.30;2.20;;;5.90;99.90;;;;;;5046532;28;20596;-75
2024/02/12 02:39:58;;;;;;;4.57;2.05;;;5.90;99.90;;;;;;5044155;28;20215;-75
2024/02/12 02:42:26;;;;;;;2.40;2.30;;;5.90;99.90;;;;;;5048381;28;20749;-76
2024/02/12 02:44:54;;;;;;;2.20;2.10;;;5.90;99.90;;;;;;5043717;28;20312;-75
2024/02/12 02:47:21;;;;;;;2.25;2.15;;;6.00;99.90;;;;;;5047221;28;20217;-75
2024/02/12 02:49:48;;;;;;;2.50;2.40;;;6.00;99.90;;;;;;5049196;28;20227;-76
2024/02/12 02:52:16;;;;;;;2.30;2.20;;;6.00;99.90;;;;;;5045932;28;20794;-75
2024/02/12 02:54:44;;;;;;;2.45;2.30;;;6.00;99.90;;;;;;5043983;28;20191;-75
2024/02/12 02:57:12;;;;;;;2.15;2.05;;;6.00;99.90;;;;;;5043522;28;20965;-75
2024/02/12 02:59:41;;;;;;;2.30;2.20;;;6.00;99.90;;;;;;5047306;28;20210;-75
2024/02/12 03:02:12;;;;;;;2.15;2.05;;;6.10;99.90;;;;;;5036507;28;20218;-75
2024/02/12 03:04:40;;;;;;;2.40;2.30;;;6.10;99.90;;;;;;5044369;28;20672;-75
2024/02/12 03:07:10;;;;;;;2.15;2.05;;;6.10;99.90;;;;;;5041827;28;20903;-76
2024/02/12 03:09:37;;;;;;;2.00;1.90;;;6.10;99.90;;;;;;5044613;28;20737;-75
2024/02/12 03:12:05;;;;;;;2.40;2.30;;;6.10;99.90;;;;;;5046493;28;20331;-75
2024/02/12 03:14:33;;;;;;;1.83;1.80;;;6.10;99.90;;;;;;5045872;28;20198;-75
2024/02/12 03:17:02;;;;;;;2.40;2.30;;;6.10;99.90;;;;;;5042423;28;20317;-75
2024/02/12 03:19:29;;;;;;;2.13;2.03;;;6.10;99.90;;;;;;5046940;28;20213;-75
2024/02/12 03:21:56;;;;;;;2.33;2.22;;;6.00;99.90;;;;;;5041591;28;20307;-75
2024/02/12 03:24:23;;;;;;;2.28;2.17;;;6.00;99.90;;;;;;5048085;28;20223;-75
2024/02/12 03:26:51;;;;;;;2.40;2.30;;;6.00;99.90;;;;;;5045584;28;20258;-75
2024/02/12 03:29:19;;;;;;;2.10;1.98;;;6.00;99.90;;;;;;5043900;28;20210;-74
2024/02/12 03:31:47;;;;;;;2.28;2.17;;;6.00;99.90;;;;;;5047316;28;20226;-74
2024/02/12 03:34:15;;;;;;;2.10;2.00;;;6.00;99.90;;;;;;5047670;28;20213;-75
2024/02/12 03:36:43;;;;;;;2.42;2.33;;;6.00;99.90;;;;;;5041257;28;20285;-75
2024/02/12 03:39:11;;;;;;;1.98;1.88;;;6.00;99.90;;;;;;5042842;28;20318;-75
2024/02/12 03:41:38;;;;;;;2.28;2.17;;;6.00;99.90;;;;;;5041244;28;20215;-75
2024/02/12 03:44:05;;;;;;;2.03;1.92;;;6.00;99.90;;;;;;5046879;28;20282;-75
2024/02/12 03:46:35;;;;;;;2.00;1.90;;;5.90;99.90;;;;;;5043645;28;20227;-75
2024/02/12 04:00:09;;;;;;;2.50;2.30;;;5.80;99.90;;;;;;5041429;28;20213;-75
2024/02/12 04:02:37;;;;;;;2.40;2.30;;;5.70;99.90;;;;;;5043435;28;20617;-75
2024/02/12 04:05:06;;;;;;;2.03;1.92;;;5.60;99.90;;;;;;5048192;28;20309;-74
2024/02/12 04:07:34;;;;;;;2.35;2.25;;;5.60;99.90;;;;;;5042203;28;20816;-74
2024/02/12 04:10:02;;;;;;;2.50;2.40;;;5.60;99.90;;;;;;5040669;28;20234;-74
2024/02/12 04:12:31;;;;;;;2.30;2.20;;;5.50;99.90;;;;;;5045371;28;20403;-74
2024/02/12 04:15:00;;;;;;;2.10;2.00;;;5.40;99.90;;;;;;5045008;28;20218;-75
2024/02/12 04:17:28;;;;;;;2.40;2.30;;;5.50;99.90;;;;;;5051323;28;20229;-75
2024/02/12 04:19:55;;;;;;;2.22;2.13;;;5.50;99.90;;;;;;5046111;28;20231;-75
2024/02/12 04:22:26;;;;;;;1.92;1.80;;;5.40;99.90;;;;;;5043742;28;20199;-74
2024/02/12 04:24:55;;;;;;;2.38;2.28;;;5.40;99.90;;;;;;5048850;28;20214;-75
2024/02/12 04:27:22;;;;;;;2.00;1.90;;;5.40;99.90;;;;;;5045109;28;20282;-75
2024/02/12 04:29:51;;;;;;;2.00;1.90;;;5.40;99.90;;;;;;5046490;28;20207;-74
2024/02/12 04:32:18;;;;;;;2.08;1.98;;;5.40;99.90;;;;;;5047374;28;20298;-75
2024/02/12 04:34:45;;;;;;;1.92;1.83;;;5.40;99.90;;;;;;5046917;28;20199;-74
2024/02/12 04:37:13;;;;;;;2.05;2.00;;;5.40;99.90;;;;;;5051605;28;20242;-74
2024/02/12 04:39:40;;;;;;;2.17;2.08;;;5.40;99.90;;;;;;5052328;28;20222;-75
2024/02/12 04:42:09;;;;;;;1.80;1.80;;;5.40;99.90;;;;;;5046701;28;20245;-75
2024/02/12 04:44:36;;;;;;;2.10;2.03;;;5.40;99.90;;;;;;5046825;28;20210;-74
2024/02/12 04:47:04;;;;;;;2.20;2.10;;;5.40;99.90;;;;;;5047359;28;20623;-75
2024/02/12 04:49:31;;;;;;;2.13;2.03;;;5.40;99.90;;;;;;5075865;28;20379;-74
2024/02/12 04:51:59;;;;;;;2.40;2.30;;;5.40;99.90;;;;;;5049488;28;20831;-74
2024/02/12 04:54:27;;;;;;;2.05;1.95;;;5.30;99.90;;;;;;5047501;28;20222;-75
2024/02/12 04:56:54;;;;;;;2.10;2.00;;;5.30;99.90;;;;;;5045098;28;20297;-74
2024/02/12 04:59:23;;;;;;;2.17;2.08;;;5.20;99.90;;;;;;5048943;28;20218;-74
2024/02/12 05:01:50;;;;;;;2.25;2.15;;;5.20;99.90;;;;;;5045615;28;20309;-75
2024/02/12 05:04:17;;;;;;;2.03;1.92;;;5.20;99.90;;;;;;5050260;28;20303;-74
2024/02/12 05:06:45;;;;;;;2.25;2.15;;;5.20;99.90;;;;;;5051355;28;20654;-74
2024/02/12 05:09:13;;;;;;;2.58;2.47;;;5.20;99.90;;;;;;5048426;28;20207;-74
2024/02/12 05:11:40;;;;;;;2.38;2.28;;;5.20;99.90;;;;;;5051180;28;20209;-75
2024/02/12 05:14:07;;;;;;;2.40;2.30;;;5.20;99.90;;;;;;5053468;28;20226;-74
2024/02/12 05:16:37;;;;;;;2.15;2.05;;;5.20;99.90;;;;;;5048265;28;20227;-74
2024/02/12 05:24:35;;;;;;;2.28;2.17;;;5.10;99.90;;;;;;5050452;28;20256;-74
2024/02/12 05:27:03;;;;;;;2.30;2.20;;;5.10;99.90;;;;;;5052387;28;20345;-74
2024/02/12 05:29:30;;;;;;;2.40;2.30;;;5.00;99.90;;;;;;5053382;28;20671;-74
2024/02/12 05:31:59;;;;;;;2.22;2.13;;;5.00;99.90;;;;;;5043851;28;20364;-74
2024/02/12 05:34:26;;;;;;;2.10;2.00;;;5.00;99.90;;;;;;5050380;28;20202;-74
2024/02/12 05:36:54;;;;;;;1.88;1.77;;;4.90;99.90;;;;;;5045900;28;20250;-74
2024/02/12 05:39:22;;;;;;;1.80;1.80;;;4.90;99.90;;;;;;5051364;28;20215;-73
2024/02/12 05:41:49;;;;;;;2.00;1.90;;;4.90;99.90;;;;;;5046345;28;20836;-74
2024/02/12 05:44:17;;;;;;;2.72;2.63;;;5.00;99.90;;;;;;5048366;28;20226;-74
2024/02/12 05:46:45;;;;;;;2.13;2.10;;;5.00;99.90;;;;;;5044075;28;20242;-74
2024/02/12 05:49:14;;;;;;;2.15;2.05;;;5.00;99.90;;;;;;5046640;28;20234;-74
2024/02/12 05:51:43;;;;;;;2.38;2.28;;;5.00;99.90;;;;;;5045460;28;20223;-74
2024/02/12 05:54:10;;;;;;;2.30;2.20;;;5.00;99.90;;;;;;5047738;28;20285;-74
2024/02/12 05:56:39;;;;;;;2.08;1.98;;;5.00;99.90;;;;;;5046476;28;20222;-74
2024/02/12 05:59:07;;;;;;;2.45;2.35;;;5.00;99.90;;;;;;5042045;28;20204;-73
2024/02/12 06:01:34;;;;;;;2.10;2.00;;;5.00;99.90;;;;;;5044486;28;20241;-73
2024/02/12 06:04:01;;;;;;;2.20;2.10;;;5.00;99.90;;;;;;5048034;28;20875;-73
2024/02/12 06:06:30;;;;;;;2.30;2.20;;;5.00;99.90;;;;;;5045015;28;20320;-73
2024/02/12 06:08:57;;;;;;;2.30;2.20;;;5.00;99.90;;;;;;5046022;28;20253;-74
2024/02/12 06:11:24;;;;;;;2.38;2.28;;;5.00;99.90;;;;;;5049951;28;20712;-73
2024/02/12 06:13:51;;;;;;;2.20;2.10;;;5.00;99.90;;;;;;5047668;28;20844;-74
2024/02/12 06:16:18;;;;;;;2.17;2.08;;;5.00;99.90;;;;;;5048038;28;20280;-74
2024/02/12 06:18:46;;;;;;;2.20;2.10;;;5.00;99.90;;;;;;5044248;28;20237;-74
2024/02/12 06:21:14;;;;;;;2.47;2.38;;;4.90;99.90;;;;;;5046419;28;20248;-74
2024/02/12 06:23:42;;;;;;;2.30;2.20;;;4.90;99.90;;;;;;5046453;28;20203;-74
2024/02/12 06:26:10;;;;;;;2.28;2.17;;;4.90;99.90;;;;;;5044812;28;20250;-74
2024/02/12 06:28:40;;;;;;;2.15;2.05;;;4.90;99.90;;;;;;5047470;28;20206;-74
2024/02/12 06:31:07;;;;;;;2.22;2.13;;;4.90;99.90;;;;;;5045160;28;20223;-74
2024/02/12 06:33:34;;;;;;;2.17;2.08;;;4.80;99.90;;;;;;5049395;28;20242;-74
2024/02/12 06:36:02;;;;;;;2.20;2.10;;;4.80;99.90;;;;;;5048371;28;20300;-74
2024/02/12 06:38:29;;;;;;;2.55;2.45;;;4.90;99.90;;;;;;5048358;28;20298;-74
2024/02/12 06:41:00;;;;;;;2.65;2.55;;;4.80;99.90;;;;;;5040144;28;20255;-74
2024/02/12 06:43:27;;;;;;;2.38;2.28;;;4.80;99.90;;;;;;5044184;28;20209;-74
2024/02/12 06:45:55;;;;;;;2.30;2.20;;;4.80;99.90;;;;;;5044339;28;20726;-74
2024/02/12 06:48:22;;;;;;;2.45;2.35;;;4.80;99.90;;;;;;5047267;28;20848;-74
2024/02/12 06:50:49;;;;;;;2.30;2.20;;;4.80;99.90;;;;;;5045784;28;20720;-75
2024/02/12 06:53:17;;;;;;;2.30;2.20;;;4.80;99.90;;;;;;5061400;28;20186;-76
2024/02/12 06:55:46;;;;;;;2.50;2.40;;;4.80;99.90;;;;;;5051174;28;20258;-75
2024/02/12 06:58:14;;;;;;;2.40;2.30;;;4.90;99.90;;;;;;5047876;28;20199;-75
2024/02/12 07:00:42;;;;;;;2.40;2.30;;;4.90;99.90;;;;;;5045789;28;20222;-75
2024/02/12 07:03:09;;;;;;;2.78;2.67;;;4.90;99.90;;;;;;5039614;28;20751;-74
2024/02/12 07:05:37;;;;;;;2.83;2.72;;;5.00;99.90;;;;;;5036683;28;20225;-75
2024/02/12 07:08:05;;;;;;;2.63;2.53;;;5.00;99.90;;;;;;5046969;28;20278;-75
2024/02/12 07:10:32;;;;;;;2.55;2.45;;;5.00;99.90;;;;;;5037722;28;20226;-73
2024/02/12 07:12:59;;;;;;;2.80;2.70;;;5.00;99.90;;;;;;5041122;28;20653;-75
2024/02/12 07:15:28;;;;;;;2.65;2.55;;;5.00;99.90;;;;;;5042014;28;20232;-74
2024/02/12 07:17:55;;;;;;;3.15;3.00;;;5.00;99.90;;;;;;5042833;28;20208;-74
2024/02/12 07:20:23;;;;;;;2.70;2.60;;;5.00;99.90;;;;;;5041197;28;20598;-74
2024/02/12 07:22:50;;;;;;;3.13;2.92;;;5.00;99.90;;;;;;5045612;28;20298;-74
2024/02/12 07:25:17;;;;;;;3.10;2.90;;;5.00;99.90;;;;;;5042781;28;20234;-74
2024/02/12 07:27:44;;;;;;;3.15;2.95;;;5.00;99.90;;;;;;5040992;28;20207;-74
2024/02/12 07:30:12;;;;;;;2.90;2.80;;;5.00;99.90;;;;;;5042711;28;20304;-74
2024/02/12 07:32:41;;;;;;;2.65;2.55;;;5.00;99.90;;;;;;5041688;28;20573;-74
2024/02/12 07:35:08;;;;;;;3.28;3.08;;;5.30;99.90;;;;;;5037607;28;20246;-74
2024/02/12 07:37:35;;;;;;;3.90;3.50;;;6.10;99.90;;;;;;5041937;28;20195;-73
2024/02/12 07:40:07;;;;;;;7.18;4.38;;;7.00;99.90;;;;;;5041435;28;20242;-74
2024/02/12 07:42:36;;;;;;;5.13;3.63;;;7.80;99.90;;;;;;5040925;28;20198;-74
2024/02/12 07:45:07;;;;;;;5.13;2.70;;;8.50;99.90;;;;;;5039922;28;20305;-74
2024/02/12 07:47:34;;;;;;;3.00;2.70;;;9.00;99.90;;;;;;5043806;28;20206;-74
2024/02/12 07:50:05;;;;;;;2.78;2.58;;;9.60;99.90;;;;;;5038362;28;20231;-74
2024/02/12 07:52:32;;;;;;;2.53;2.42;;;10.20;99.90;;;;;;5026330;28;20737;-74
2024/02/12 07:55:01;;;;;;;2.42;2.22;;;10.60;99.90;;;;;;5042821;28;20229;-74
2024/02/12 07:57:28;;;;;;;2.45;2.30;;;11.10;99.90;;;;;;5041420;28;21301;-74
2024/02/12 07:59:57;;;;;;;2.10;2.00;;;11.60;99.90;;;;;;5038445;28;20233;-75
2024/02/12 08:02:24;;;;;;;2.38;2.17;;;12.00;99.90;;;;;;5040907;28;20744;-75
2024/02/12 08:04:51;;;;;;;2.42;2.33;;;12.00;99.90;;;;;;5036338;28;20211;-74
2024/02/12 08:07:21;;;;;;;2.17;2.08;;;11.90;99.90;;;;;;5046691;28;20218;-74
2024/02/12 08:09:48;;;;;;;2.20;2.10;;;11.80;99.90;;;;;;5041401;28;20191;-74
2024/02/12 08:12:19;;;;;;;2.65;2.45;;;11.90;99.90;;;;;;5035932;28;20223;-73
2024/02/12 08:14:46;;;;;;;3.08;2.88;;;12.00;99.90;;;;;;5039248;28;20202;-74
2024/02/12 08:17:13;;;;;;;2.75;2.55;;;12.10;99.90;;;;;;5042328;28;20361;-73
2024/02/12 08:19:41;;;;;;;2.70;2.50;;;12.30;99.90;;;;;;5042311;28;20218;-73
2024/02/12 08:22:08;;;;;;;2.10;2.00;;;12.60;99.90;;;;;;5032857;28;20226;-74
2024/02/12 08:24:37;;;;;;;2.10;2.00;;;12.90;99.90;;;;;;5042814;28;20726;-73
2024/02/12 08:27:07;;;;;;;2.17;2.08;;;13.30;99.90;;;;;;5040434;28;20238;-76
2024/02/12 08:29:35;;;;;;;2.00;1.90;;;13.70;99.90;;;;;;5039695;28;20727;-73
2024/02/12 08:32:03;;;;;;;1.70;1.60;;;14.10;99.90;;;;;;5037997;28;20858;-72
2024/02/12 08:34:31;;;;;;;2.17;1.80;;;14.60;99.90;;;;;;5038962;28;20211;-72
2024/02/12 08:36:58;;;;;;;3.50;2.00;;;14.60;99.90;;;;;;5039377;28;20237;-73
2024/02/12 08:39:25;;;;;;;2.38;2.28;;;14.30;99.90;;;;;;5034644;28;20265;-73
2024/02/12 08:41:53;;;;;;;2.33;2.13;;;14.10;99.90;;;;;;5037638;28;20688;-74
2024/02/12 08:44:21;;;;;;;3.13;2.90;;;14.20;99.90;;;;;;5038641;28;20207;-73
2024/02/12 08:46:48;;;;;;;2.50;2.30;;;14.30;99.90;;;;;;5037768;28;20223;-73
2024/02/12 08:49:15;;;;;;;2.40;2.20;;;14.50;99.90;;;;;;5026068;28;20206;-74
2024/02/12 08:51:43;;;;;;;2.35;2.20;;;14.60;99.90;;;;;;5041614;28;20247;-74
2024/02/12 08:54:10;;;;;;;2.08;1.98;;;14.40;99.90;;;;;;5036425;28;20199;-73
2024/02/12 08:56:39;;;;;;;2.13;2.00;;;14.30;99.90;;;;;;5033683;28;20318;-73
2024/02/12 08:59:08;;;;;;;2.33;2.15;;;14.30;99.90;;;;;;5043046;28;20211;-74
2024/02/12 09:01:36;;;;;;;2.13;2.03;;;14.20;99.90;;;;;;5025022;28;20765;-73
2024/02/12 09:04:03;;;;;;;2.00;1.90;;;14.30;99.90;;;;;;5043953;28;20206;-73
2024/02/12 09:06:32;;;;;;;2.38;2.28;;;14.40;99.90;;;;;;5045152;28;20724;-74
2024/02/12 09:09:00;;;;;;;2.08;1.88;;;14.40;99.90;;;;;;5046922;28;20812;-73
2024/02/12 09:11:27;;;;;;;2.00;1.90;;;14.40;99.90;;;;;;5041986;28;20210;-73
2024/02/12 09:13:54;;;;;;;1.67;1.58;;;14.50;99.90;;;;;;5042494;28;20197;-73
2024/02/12 09:16:25;;;;;;;1.92;1.83;;;14.20;99.90;;;;;;5046667;28;20894;-73
2024/02/12 09:18:52;;;;;;;2.85;2.00;;;13.90;99.90;;;;;;5051301;28;20211;-73
2024/02/12 09:21:19;;;;;;;2.08;1.98;;;13.70;99.90;;;;;;5047002;28;20266;-73
2024/02/12 09:23:46;;;;;;;2.28;2.17;;;13.30;99.90;;;;;;5043564;28;20203;-73
2024/02/12 09:26:13;;;;;;;2.40;2.20;;;13.00;99.90;;;;;;5043319;28;20231;-73
2024/02/12 09:28:41;;;;;;;2.17;2.08;;;12.90;99.90;;;;;;5057411;28;20195;-73
2024/02/12 09:31:09;;;;;;;2.38;2.28;;;12.90;99.90;;;;;;5043854;28;20210;-73
2024/02/12 09:33:38;;;;;;;2.25;2.05;;;12.90;99.90;;;;;;5043182;28;20217;-74
2024/02/12 09:36:06;;;;;;;2.38;2.17;;;12.70;99.90;;;;;;5042616;28;20229;-73
2024/02/12 09:38:33;;;;;;;2.30;2.13;;;13.00;99.90;;;;;;5044316;28;20574;-73
2024/02/12 09:41:01;;;;;;;2.00;1.90;;;13.40;99.90;;;;;;5045551;28;20695;-73
2024/02/12 09:43:32;;;;;;;2.10;2.00;;;13.50;99.90;;;;;;5041414;28;20930;-73
2024/02/12 09:46:04;;;;;;;3.05;2.38;;;13.60;99.90;;;;;;5046494;28;20799;-74
2024/02/12 09:48:31;;;;;;;2.08;1.98;;;13.50;99.90;;;;;;5045526;28;20287;-73
2024/02/12 09:51:01;;;;;;;2.85;2.65;;;13.50;99.90;;;;;;5042593;28;20217;-74
2024/02/12 09:53:28;;;;;;;2.88;2.67;;;13.50;99.90;;;;;;5044913;28;20218;-73
2024/02/12 09:56:00;;;;;;;2.58;2.42;;;13.40;99.90;;;;;;5042084;28;20257;-73
2024/02/12 09:58:27;;;;;;;2.97;2.67;;;13.30;99.90;;;;;;5041695;28;20213;-73
2024/02/12 10:00:54;;;;;;;2.92;2.72;;;13.30;99.90;;;;;;5042447;28;20222;-73
2024/02/12 10:03:21;;;;;;;3.45;2.70;;;13.70;99.90;;;;;;5042173;28;20226;-74
2024/02/12 10:05:48;;;;;;;2.47;2.28;;;14.00;99.90;;;;;;5043166;28;20230;-73
2024/02/12 10:08:21;;;;;;;2.88;2.55;;;14.00;99.90;;;;;;5049179;28;20214;-73
2024/02/12 10:10:49;;;;;;;2.80;2.60;;;14.10;99.90;;;;;;5043568;28;20286;-74
2024/02/12 10:13:17;;;;;;;3.15;2.90;;;14.10;99.90;;;;;;5041837;28;20221;-73
2024/02/12 10:15:44;;;;;;;3.47;2.55;;;14.00;99.90;;;;;;5042708;28;20250;-74
2024/02/12 10:18:15;;;;;;;2.67;2.47;;;13.90;99.90;;;;;;5048035;28;20238;-74
2024/02/12 10:20:43;;;;;;;2.88;2.67;;;14.10;99.90;;;;;;5042164;28;20233;-74
2024/02/12 10:23:10;;;;;;;3.20;2.90;;;14.40;99.90;;;;;;5041890;28;20225;-74
2024/02/12 10:25:45;;;;;;;2.67;2.50;;;14.40;99.90;;;;;;5044145;28;20221;-74
2024/02/12 10:28:13;;;;;;;3.33;2.65;;;14.50;99.90;;;;;;5046419;28;20197;-73
2024/02/12 10:30:40;;;;;;;3.03;2.78;;;14.50;99.90;;;;;;5043951;28;20338;-73
2024/02/12 10:33:10;;;;;;;2.88;2.55;;;14.20;99.90;;;;;;5045462;28;20209;-74
2024/02/12 10:35:38;;;;;;;2.53;2.33;;;14.30;99.90;;;;;;5052031;28;20218;-74
2024/02/12 10:38:07;;;;;;;2.55;2.30;;;14.30;99.90;;;;;;5041867;28;20199;-73
2024/02/12 10:40:38;;;;;;;2.50;2.33;;;14.20;99.90;;;;;;5042290;28;20752;-74
2024/02/12 10:43:07;;;;;;;2.47;2.00;;;14.30;99.90;;;;;;5046414;28;20284;-73
2024/02/12 10:45:34;;;;;;;2.30;2.00;;;14.20;99.90;;;;;;5042145;28;20226;-74
2024/02/12 10:48:02;;;;;;;2.08;1.98;;;14.60;99.90;;;;;;5039650;28;20256;-74
2024/02/12 10:50:32;;;;;;;2.33;1.80;;;14.50;99.90;;;;;;5038637;28;20222;-73
2024/02/12 10:53:00;;;;;;;1.70;1.60;;;14.50;99.90;;;;;;5041555;28;20195;-74
2024/02/12 10:55:27;;;;;;;2.00;1.90;;;14.70;99.90;;;;;;5038846;28;20248;-73
2024/02/12 10:57:54;;;;;;;2.17;2.08;;;14.90;99.90;;;;;;5043818;28;20253;-73
2024/02/12 11:00:25;;;;;;;1.90;1.75;;;15.20;99.90;;;;;;5039519;28;20242;-74
2024/02/12 11:02:55;;;;;;;2.00;1.90;;;15.20;99.90;;;;;;5042960;28;20304;-74
2024/02/12 11:05:22;;;;;;;1.60;1.50;;;15.00;99.90;;;;;;5041538;28;20253;-73
2024/02/12 11:08:00;;;;;;;2.17;1.55;;;15.10;99.90;;;;;;5038243;28;20199;-74
2024/02/12 11:10:33;;;;;;;1.80;1.70;;;15.10;99.90;;;;;;5037132;28;20316;-74
2024/02/12 11:13:05;;;;;;;1.80;1.70;;;15.10;99.90;;;;;;5044730;28;20202;-74
2024/02/12 11:15:34;;;;;;;1.50;1.40;;;15.00;99.90;;;;;;5043663;28;20226;-73
2024/02/12 11:18:13;;;;;;;1.80;1.70;;;15.10;99.90;;;;;;5043170;28;20207;-77
2024/02/12 11:20:50;;;;;;;1.83;1.73;;;15.60;99.90;;;;;;5041989;28;20352;-77
2024/02/12 11:23:22;;;;;;;1.60;1.50;;;15.60;99.90;;;;;;5043529;28;20191;-77
2024/02/12 11:25:50;;;;;;;1.70;1.60;;;15.70;99.90;;;;;;5039265;28;20233;-78
2024/02/12 11:28:17;;;;;;;1.60;1.50;;;15.60;99.90;;;;;;5045464;28;20612;-78
2024/02/12 11:30:48;;;;;;;1.75;1.65;;;15.70;99.90;;;;;;5045776;28;20250;-78
2024/02/12 11:33:15;;;;;;;1.50;1.40;;;15.70;99.90;;;;;;5047497;28;20268;-79
2024/02/12 11:35:42;;;;;;;1.77;1.67;;;15.40;99.90;;;;;;5044240;28;20913;-77
2024/02/12 11:38:13;;;;;;;1.92;1.83;;;15.00;99.90;;;;;;5045568;28;20222;-76
2024/02/12 11:40:41;;;;;;;1.70;1.60;;;14.90;99.90;;;;;;5046486;28;20218;-78
2024/02/12 11:43:08;;;;;;;1.92;1.83;;;14.90;99.90;;;;;;5038157;28;20211;-75
2024/02/12 11:45:36;;;;;;;1.80;1.70;;;15.10;99.90;;;;;;5037692;28;20281;-76
2024/02/12 11:48:13;;;;;;;1.63;1.52;;;15.00;99.90;;;;;;5052265;28;20298;-77
2024/02/12 11:50:41;;;;;;;1.38;1.35;;;14.80;99.90;;;;;;5047051;28;20828;-76
2024/02/12 11:53:08;;;;;;;1.98;1.88;;;14.50;99.90;;;;;;5042577;28;20194;-76
2024/02/12 11:55:40;;;;;;;1.63;1.52;;;14.40;99.90;;;;;;5043128;28;20765;-76
2024/02/12 11:58:08;;;;;;;1.95;1.85;;;14.20;99.90;;;;;;5042876;28;20234;-77
2024/02/12 12:00:35;;;;;;;1.83;1.73;;;14.10;99.90;;;;;;5042382;28;20943;-76
2024/02/12 12:03:04;;;;;;;1.70;1.60;;;14.20;99.90;;;;;;5043351;28;20246;-78
2024/02/12 12:05:32;;;;;;;1.80;1.70;;;14.10;99.90;;;;;;5042975;28;20223;-75
2024/02/12 12:08:00;;;;;;;1.77;1.67;;;14.30;99.90;;;;;;5044359;28;20222;-75
2024/02/12 12:10:30;;;;;;;1.65;1.55;;;14.40;99.90;;;;;;5041046;28;20219;-75
2024/02/12 12:13:00;;;;;;;1.60;1.50;;;14.40;99.90;;;;;;5046355;28;20981;-76
2024/02/12 12:15:28;;;;;;;1.58;1.48;;;14.60;99.90;;;;;;5042247;28;20250;-77
2024/02/12 12:17:58;;;;;;;1.90;1.80;;;14.70;99.90;;;;;;5043026;28;20263;-75
2024/02/12 12:20:29;;;;;;;1.40;1.40;;;14.60;99.90;;;;;;5035203;28;20679;-76
2024/02/12 12:22:58;;;;;;;1.80;1.70;;;14.70;99.90;;;;;;5042647;28;20225;-78
2024/02/12 12:25:25;;;;;;;1.45;1.40;;;14.70;99.90;;;;;;5045851;28;20221;-77
2024/02/12 12:27:52;;;;;;;1.80;1.70;;;14.80;99.90;;;;;;5044869;28;20240;-75
2024/02/12 12:30:20;;;;;;;1.60;1.55;;;14.50;99.90;;;;;;5042554;28;20972;-76
2024/02/12 12:32:48;;;;;;;1.50;1.40;;;14.50;99.90;;;;;;5042757;28;20230;-77
2024/02/12 12:35:16;;;;;;;1.55;1.45;;;14.30;99.90;;;;;;5046889;28;20685;-76
2024/02/12 12:37:45;;;;;;;2.17;1.42;;;14.40;99.90;;;;;;5046669;28;20226;-75
2024/02/12 12:40:18;;;;;;;1.33;1.33;;;14.60;99.90;;;;;;5049626;28;20226;-75
2024/02/12 12:42:47;;;;;;;2.15;1.70;;;14.60;99.90;;;;;;5049608;28;20257;-76
2024/02/12 12:45:15;;;;;;;1.63;1.30;;;14.60;99.90;;;;;;5050435;28;20280;-76
2024/02/12 12:47:43;;;;;;;1.40;1.40;;;14.90;99.90;;;;;;5045158;28;20234;-75
2024/02/12 12:50:13;;;;;;;1.48;1.38;;;15.00;99.90;;;;;;5047027;28;21053;-76
2024/02/12 12:52:41;;;;;;;1.60;1.50;;;14.80;99.90;;;;;;5044203;28;20199;-76
2024/02/12 12:55:12;;;;;;;1.30;1.30;;;14.80;99.90;;;;;;5041105;28;20242;-75
2024/02/12 12:57:42;;;;;;;1.40;1.40;;;15.00;99.90;;;;;;5042641;28;20195;-76
2024/02/12 13:00:18;;;;;;;1.10;1.10;;;15.10;99.90;;;;;;5044368;28;20308;-76
2024/02/12 13:02:45;;;;;;;1.10;1.10;;;15.00;99.90;;;;;;5055559;28;20770;-75
2024/02/12 13:05:13;;;;;;;1.20;1.17;;;15.00;99.90;;;;;;5051623;28;20687;-75
2024/02/12 13:07:41;;;;;;;1.58;1.30;;;15.10;99.90;;;;;;5050775;28;20225;-76
2024/02/12 13:10:09;;;;;;;1.27;1.25;;;15.10;99.90;;;;;;5043533;28;20222;-75
2024/02/12 13:12:38;;;;;;;1.33;1.30;;;14.90;99.90;;;;;;5046293;28;20214;-77
2024/02/12 13:15:10;;;;;;;1.35;1.25;;;14.70;99.90;;;;;;5041798;28;20277;-73
2024/02/12 13:17:37;;;;;;;1.50;1.40;;;14.70;99.90;;;;;;5040876;28;20194;-73